Terminal Aerodrome Forecast
Issued by NWS

Home | Current Version | Previous Version | Text Only | Print | Product List | Glossary On
Versions: 1 2 3 4 5 6 7 8 9 10 11 12 13 14 15 16 17 18 19 20 21 22 23 24 25 26 27 28 29 30 31 32
000
FTUS43 KDLH 261722
TAFHIB
TAF
KHIB 261722Z 2618/2718 29016G24KT P6SM -SHRA OVC020
     FM261900 30018G30KT P6SM -SHRA OVC025
     FM270200 31015G25KT P6SM -SHRA OVC020
     FM270600 31014G23KT P6SM -SHRA OVC015=

USA.gov is the U.S. government's official web portal to all federal, state and local government web resources and services.